sensor_id;sensor_type;location;lat;lon;timestamp;pressure;altitude;pressure_sealevel;temperature;humidity
24962;BME280;12992;50.884;13.668;2023-04-07T00:01:49;97314.59;;;0.67;89.75
24962;BME280;12992;50.884;13.668;2023-04-07T00:04:14;97312.94;;;0.66;90.94
24962;BME280;12992;50.884;13.668;2023-04-07T00:06:40;97293.41;;;0.50;92.12
24962;BME280;12992;50.884;13.668;2023-04-07T00:09:07;97299.16;;;0.47;91.42
24962;BME280;12992;50.884;13.668;2023-04-07T00:11:32;97297.50;;;0.46;90.31
24962;BME280;12992;50.884;13.668;2023-04-07T00:13:58;97311.84;;;0.60;89.91
24962;BME280;12992;50.884;13.668;2023-04-07T00:16:23;97279.31;;;0.42;90.49
24962;BME280;12992;50.884;13.668;2023-04-07T00:18:48;97293.34;;;0.44;90.40
24962;BME280;12992;50.884;13.668;2023-04-07T00:21:14;97270.16;;;0.30;89.93
24962;BME280;12992;50.884;13.668;2023-04-07T00:23:39;97268.88;;;0.25;90.75
24962;BME280;12992;50.884;13.668;2023-04-07T00:26:04;97263.50;;;0.25;90.98
24962;BME280;12992;50.884;13.668;2023-04-07T00:28:30;97255.56;;;0.11;91.17
24962;BME280;12992;50.884;13.668;2023-04-07T00:30:55;97271.44;;;0.12;91.83
24962;BME280;12992;50.884;13.668;2023-04-07T00:33:20;97280.09;;;0.14;93.07
24962;BME280;12992;50.884;13.668;2023-04-07T00:35:47;97263.53;;;0.04;92.67
24962;BME280;12992;50.884;13.668;2023-04-07T00:38:12;97264.56;;;0.03;92.44
24962;BME280;12992;50.884;13.668;2023-04-07T00:40:37;97250.88;;;-0.02;93.01
24962;BME280;12992;50.884;13.668;2023-04-07T00:43:03;97281.88;;;0.07;93.17
24962;BME280;12992;50.884;13.668;2023-04-07T00:45:28;97255.81;;;-0.06;93.10
24962;BME280;12992;50.884;13.668;2023-04-07T00:47:56;97276.72;;;0.06;92.79
24962;BME280;12992;50.884;13.668;2023-04-07T00:50:21;97269.00;;;-0.04;93.65
24962;BME280;12992;50.884;13.668;2023-04-07T00:52:47;97278.50;;;-0.02;93.79
24962;BME280;12992;50.884;13.668;2023-04-07T00:55:12;97264.03;;;-0.07;93.88
24962;BME280;12992;50.884;13.668;2023-04-07T00:57:38;97257.16;;;-0.16;93.82
24962;BME280;12992;50.884;13.668;2023-04-07T01:00:05;97273.13;;;-0.02;94.77
24962;BME280;12992;50.884;13.668;2023-04-07T01:02:41;97269.81;;;-0.04;94.65
24962;BME280;12992;50.884;13.668;2023-04-07T01:05:29;97274.78;;;-0.01;94.16
24962;BME280;12992;50.884;13.668;2023-04-07T01:08:09;97270.66;;;-0.03;94.75
24962;BME280;12992;50.884;13.668;2023-04-07T01:10:46;97269.91;;;0.03;93.62
24962;BME280;12992;50.884;13.668;2023-04-07T01:13:37;97236.81;;;-0.11;93.96
24962;BME280;12992;50.884;13.668;2023-04-07T01:16:23;97251.69;;;-0.08;95.47
24962;BME280;12992;50.884;13.668;2023-04-07T01:18:53;97207.03;;;-0.44;95.98
24962;BME280;12992;50.884;13.668;2023-04-07T01:21:21;97241.13;;;-0.31;97.06
24962;BME280;12992;50.884;13.668;2023-04-07T01:26:36;97254.47;;;-0.16;94.73
24962;BME280;12992;50.884;13.668;2023-04-07T01:29:10;97255.72;;;-0.12;94.50
24962;BME280;12992;50.884;13.668;2023-04-07T01:31:39;97273.72;;;-0.06;94.49
24962;BME280;12992;50.884;13.668;2023-04-07T01:34:08;97261.34;;;-0.07;94.39
24962;BME280;12992;50.884;13.668;2023-04-07T01:36:35;97253.06;;;-0.12;94.83
24962;BME280;12992;50.884;13.668;2023-04-07T01:39:01;97242.66;;;-0.22;95.65
24962;BME280;12992;50.884;13.668;2023-04-07T01:41:27;97229.22;;;-0.29;95.70
24962;BME280;12992;50.884;13.668;2023-04-07T01:43:53;97224.25;;;-0.32;95.86
24962;BME280;12992;50.884;13.668;2023-04-07T01:46:19;97236.59;;;-0.31;95.58
24962;BME280;12992;50.884;13.668;2023-04-07T01:48:46;97232.91;;;-0.30;94.36
24962;BME280;12992;50.884;13.668;2023-04-07T01:51:12;97230.81;;;-0.34;95.15
24962;BME280;12992;50.884;13.668;2023-04-07T01:53:43;97231.16;;;-0.37;95.68
24962;BME280;12992;50.884;13.668;2023-04-07T01:56:09;97217.47;;;-0.49;95.97
24962;BME280;12992;50.884;13.668;2023-04-07T01:58:36;97213.34;;;-0.51;95.77
24962;BME280;12992;50.884;13.668;2023-04-07T02:01:04;97251.75;;;-0.38;95.42
24962;BME280;12992;50.884;13.668;2023-04-07T02:03:51;97260.19;;;-0.19;93.20
24962;BME280;12992;50.884;13.668;2023-04-07T02:06:24;97238.72;;;-0.26;93.69
24962;BME280;12992;50.884;13.668;2023-04-07T02:08:55;97236.78;;;-0.32;94.83
24962;BME280;12992;50.884;13.668;2023-04-07T02:11:23;97216.34;;;-0.40;94.90
24962;BME280;12992;50.884;13.668;2023-04-07T02:13:54;97236.41;;;-0.29;94.54
24962;BME280;12992;50.884;13.668;2023-04-07T02:16:21;97241.56;;;-0.28;94.90
24962;BME280;12992;50.884;13.668;2023-04-07T02:18:47;97234.13;;;-0.32;94.25
24962;BME280;12992;50.884;13.668;2023-04-07T02:21:14;97232.47;;;-0.33;94.74
24962;BME280;12992;50.884;13.668;2023-04-07T02:23:42;97268.09;;;-0.11;93.31
24962;BME280;12992;50.884;13.668;2023-04-07T02:26:08;97249.16;;;-0.10;91.68
24962;BME280;12992;50.884;13.668;2023-04-07T02:28:34;97254.97;;;-0.06;91.43
24962;BME280;12992;50.884;13.668;2023-04-07T02:30:59;97253.56;;;-0.02;91.61
24962;BME280;12992;50.884;13.668;2023-04-07T02:33:25;97235.97;;;-0.11;91.60
24962;BME280;12992;50.884;13.668;2023-04-07T02:35:50;97246.50;;;-0.10;92.12
24962;BME280;12992;50.884;13.668;2023-04-07T02:38:15;97219.41;;;-0.21;92.49
24962;BME280;12992;50.884;13.668;2023-04-07T02:40:41;97231.75;;;-0.20;92.52
24962;BME280;12992;50.884;13.668;2023-04-07T02:43:06;97210.25;;;-0.34;93.12
24962;BME280;12992;50.884;13.668;2023-04-07T02:45:31;97225.91;;;-0.31;93.23
24962;BME280;12992;50.884;13.668;2023-04-07T02:47:56;97235.38;;;-0.28;93.76
24962;BME280;12992;50.884;13.668;2023-04-07T02:50:22;97219.72;;;-0.31;93.80
24962;BME280;12992;50.884;13.668;2023-04-07T02:52:47;97222.84;;;-0.28;92.89
24962;BME280;12992;50.884;13.668;2023-04-07T02:55:14;97225.59;;;-0.21;92.93
24962;BME280;12992;50.884;13.668;2023-04-07T02:57:39;97222.00;;;-0.28;93.42
24962;BME280;12992;50.884;13.668;2023-04-07T03:00:11;97216.84;;;-0.30;92.84
24962;BME280;12992;50.884;13.668;2023-04-07T03:02:58;97205.25;;;-0.37;92.53
24962;BME280;12992;50.884;13.668;2023-04-07T03:05:25;97223.09;;;-0.22;91.81
24962;BME280;12992;50.884;13.668;2023-04-07T03:07:50;97202.75;;;-0.38;92.29
24962;BME280;12992;50.884;13.668;2023-04-07T03:10:16;97227.44;;;-0.21;91.81
24962;BME280;12992;50.884;13.668;2023-04-07T03:12:42;97201.53;;;-0.36;92.07
24962;BME280;12992;50.884;13.668;2023-04-07T03:15:07;97213.09;;;-0.35;92.89
24962;BME280;12992;50.884;13.668;2023-04-07T03:17:34;97210.78;;;-0.38;93.04
24962;BME280;12992;50.884;13.668;2023-04-07T03:19:59;97217.59;;;-0.36;93.20
24962;BME280;12992;50.884;13.668;2023-04-07T03:22:25;97213.28;;;-0.37;94.01
24962;BME280;12992;50.884;13.668;2023-04-07T03:24:52;97193.78;;;-0.52;94.60
24962;BME280;12992;50.884;13.668;2023-04-07T03:27:20;97204.72;;;-0.47;95.27
24962;BME280;12992;50.884;13.668;2023-04-07T03:29:47;97192.28;;;-0.54;95.88
24962;BME280;12992;50.884;13.668;2023-04-07T03:32:16;97210.28;;;-0.48;95.93
24962;BME280;12992;50.884;13.668;2023-04-07T03:34:41;97205.22;;;-0.58;96.29
24962;BME280;12992;50.884;13.668;2023-04-07T03:37:06;97249.66;;;-0.57;95.95
24962;BME280;12992;50.884;13.668;2023-04-07T03:39:34;97214.75;;;-0.70;95.94
24962;BME280;12992;50.884;13.668;2023-04-07T03:42:03;97218.63;;;-0.73;95.69
24962;BME280;12992;50.884;13.668;2023-04-07T03:44:31;97230.50;;;-0.61;95.03
24962;BME280;12992;50.884;13.668;2023-04-07T03:46:57;97216.47;;;-0.63;94.53
24962;BME280;12992;50.884;13.668;2023-04-07T03:49:23;97231.34;;;-0.60;95.80
24962;BME280;12992;50.884;13.668;2023-04-07T03:51:49;97225.06;;;-0.67;96.41
24962;BME280;12992;50.884;13.668;2023-04-07T03:54:16;97201.59;;;-0.87;98.07
24962;BME280;12992;50.884;13.668;2023-04-07T03:56:43;97206.28;;;-0.89;98.87
24962;BME280;12992;50.884;13.668;2023-04-07T03:59:08;97204.38;;;-0.95;99.96
24962;BME280;12992;50.884;13.668;2023-04-07T04:01:39;97232.91;;;-0.80;100.00
24962;BME280;12992;50.884;13.668;2023-04-07T04:04:10;97214.31;;;-0.89;99.93
24962;BME280;12992;50.884;13.668;2023-04-07T04:06:35;97197.47;;;-1.04;100.00
24962;BME280;12992;50.884;13.668;2023-04-07T04:09:12;97213.56;;;-0.97;100.00
24962;BME280;12992;50.884;13.668;2023-04-07T04:11:43;97211.09;;;-0.99;100.00
24962;BME280;12992;50.884;13.668;2023-04-07T04:14:08;97202.81;;;-1.04;100.00
24962;BME280;12992;50.884;13.668;2023-04-07T04:16:36;97232.75;;;-0.94;100.00
24962;BME280;12992;50.884;13.668;2023-04-07T04:19:07;97237.00;;;-0.84;99.41
24962;BME280;12992;50.884;13.668;2023-04-07T04:21:33;97229.34;;;-0.88;99.16
24962;BME280;12992;50.884;13.668;2023-04-07T04:23:58;97219.19;;;-0.92;98.91
24962;BME280;12992;50.884;13.668;2023-04-07T04:26:29;97228.44;;;-0.95;99.55
24962;BME280;12992;50.884;13.668;2023-04-07T04:28:59;97214.53;;;-1.05;99.78
24962;BME280;12992;50.884;13.668;2023-04-07T04:31:24;97228.88;;;-0.91;100.00
24962;BME280;12992;50.884;13.668;2023-04-07T04:33:50;97230.09;;;-0.94;99.17
24962;BME280;12992;50.884;13.668;2023-04-07T04:36:16;97227.22;;;-0.92;98.98
24962;BME280;12992;50.884;13.668;2023-04-07T04:38:42;97219.94;;;-0.98;99.60
24962;BME280;12992;50.884;13.668;2023-04-07T04:41:16;97224.66;;;-1.00;100.00
24962;BME280;12992;50.884;13.668;2023-04-07T04:43:42;97243.72;;;-0.89;100.00
24962;BME280;12992;50.884;13.668;2023-04-07T04:46:09;97235.53;;;-0.87;100.00
24962;BME280;12992;50.884;13.668;2023-04-07T04:48:39;97232.13;;;-0.96;99.91
24962;BME280;12992;50.884;13.668;2023-04-07T04:51:06;97213.13;;;-1.01;99.57
24962;BME280;12992;50.884;13.668;2023-04-07T04:53:31;97226.59;;;-0.94;99.76
24962;BME280;12992;50.884;13.668;2023-04-07T04:55:59;97245.00;;;-0.84;99.63
24962;BME280;12992;50.884;13.668;2023-04-07T04:58:38;97246.94;;;-0.78;100.00
24962;BME280;12992;50.884;13.668;2023-04-07T05:01:05;97256.88;;;-0.72;100.00
24962;BME280;12992;50.884;13.668;2023-04-07T05:03:46;97243.16;;;-0.84;100.00
24962;BME280;12992;50.884;13.668;2023-04-07T05:06:17;97248.59;;;-0.77;100.00
24962;BME280;12992;50.884;13.668;2023-04-07T05:08:44;97241.97;;;-0.81;99.16
24962;BME280;12992;50.884;13.668;2023-04-07T05:11:10;97255.03;;;-0.72;99.09
24962;BME280;12992;50.884;13.668;2023-04-07T05:13:36;97253.84;;;-0.69;98.37
24962;BME280;12992;50.884;13.668;2023-04-07T05:16:03;97265.53;;;-0.55;98.43
24962;BME280;12992;50.884;13.668;2023-04-07T05:18:29;97271.78;;;-0.48;99.38
24962;BME280;12992;50.884;13.668;2023-04-07T05:20:56;97277.47;;;-0.37;97.49
24962;BME280;12992;50.884;13.668;2023-04-07T05:23:23;97295.13;;;-0.06;95.35
24962;BME280;12992;50.884;13.668;2023-04-07T05:25:50;97283.50;;;0.02;94.16
24962;BME280;12992;50.884;13.668;2023-04-07T05:28:16;97280.28;;;0.13;92.77
24962;BME280;12992;50.884;13.668;2023-04-07T05:30:42;97294.78;;;0.18;92.71
24962;BME280;12992;50.884;13.668;2023-04-07T05:33:07;97293.31;;;0.37;92.18
24962;BME280;12992;50.884;13.668;2023-04-07T05:35:46;97295.88;;;0.52;91.01
24962;BME280;12992;50.884;13.668;2023-04-07T05:38:12;97291.44;;;0.59;90.72
24962;BME280;12992;50.884;13.668;2023-04-07T05:40:39;97322.53;;;0.81;91.62
24962;BME280;12992;50.884;13.668;2023-04-07T05:43:08;97316.34;;;1.09;90.93
24962;BME280;12992;50.884;13.668;2023-04-07T05:45:33;97321.25;;;1.33;91.04
24962;BME280;12992;50.884;13.668;2023-04-07T05:47:59;97322.41;;;1.59;92.64
24962;BME280;12992;50.884;13.668;2023-04-07T05:50:33;97313.84;;;1.83;89.50
24962;BME280;12992;50.884;13.668;2023-04-07T05:53:02;97307.94;;;2.08;87.25
24962;BME280;12992;50.884;13.668;2023-04-07T05:55:28;97280.88;;;2.09;87.10
24962;BME280;12992;50.884;13.668;2023-04-07T05:57:53;97255.88;;;1.95;87.61
24962;BME280;12992;50.884;13.668;2023-04-07T06:00:21;97262.06;;;1.96;86.74
24962;BME280;12992;50.884;13.668;2023-04-07T06:02:57;97238.69;;;1.90;85.78
24962;BME280;12992;50.884;13.668;2023-04-07T06:05:23;97234.56;;;1.87;86.63
24962;BME280;12992;50.884;13.668;2023-04-07T06:07:51;97217.16;;;1.77;85.91
24962;BME280;12992;50.884;13.668;2023-04-07T06:10:18;97224.81;;;1.73;86.40
24962;BME280;12992;50.884;13.668;2023-04-07T06:12:44;97251.69;;;1.93;86.49
24962;BME280;12992;50.884;13.668;2023-04-07T06:15:10;97257.94;;;2.07;87.19
24962;BME280;12992;50.884;13.668;2023-04-07T06:17:36;97255.47;;;2.12;88.18
24962;BME280;12992;50.884;13.668;2023-04-07T06:20:02;97258.00;;;2.33;86.71
24962;BME280;12992;50.884;13.668;2023-04-07T06:22:31;97272.47;;;2.59;87.71
24962;BME280;12992;50.884;13.668;2023-04-07T06:24:56;97272.25;;;2.80;85.46
24962;BME280;12992;50.884;13.668;2023-04-07T06:27:22;97264.59;;;2.97;84.46
24962;BME280;12992;50.884;13.668;2023-04-07T06:29:49;97276.31;;;3.35;83.96
24962;BME280;12992;50.884;13.668;2023-04-07T06:32:14;97307.16;;;3.97;84.34
24962;BME280;12992;50.884;13.668;2023-04-07T06:34:40;97278.31;;;4.43;80.11
24962;BME280;12992;50.884;13.668;2023-04-07T06:37:05;97276.53;;;4.87;77.10
24962;BME280;12992;50.884;13.668;2023-04-07T06:39:31;97230.53;;;5.00;78.33
24962;BME280;12992;50.884;13.668;2023-04-07T06:41:56;97228.31;;;5.15;77.08
24962;BME280;12992;50.884;13.668;2023-04-07T06:44:22;97217.44;;;5.22;76.98
24962;BME280;12992;50.884;13.668;2023-04-07T06:46:47;97212.41;;;5.44;76.84
24962;BME280;12992;50.884;13.668;2023-04-07T06:49:17;97213.75;;;5.53;76.13
24962;BME280;12992;50.884;13.668;2023-04-07T06:51:42;97223.94;;;5.69;77.97
24962;BME280;12992;50.884;13.668;2023-04-07T06:54:07;97208.53;;;5.88;75.08
24962;BME280;12992;50.884;13.668;2023-04-07T06:56:37;97221.69;;;6.14;72.95
24962;BME280;12992;50.884;13.668;2023-04-07T06:59:02;97220.72;;;6.39;71.58
24962;BME280;12992;50.884;13.668;2023-04-07T07:01:27;97238.66;;;6.75;73.70
24962;BME280;12992;50.884;13.668;2023-04-07T07:03:53;97228.69;;;7.10;72.85
24962;BME280;12992;50.884;13.668;2023-04-07T07:06:18;97207.69;;;7.41;67.30
24962;BME280;12992;50.884;13.668;2023-04-07T07:08:43;97145.69;;;7.16;61.04
24962;BME280;12992;50.884;13.668;2023-04-07T07:11:09;97132.88;;;7.00;60.30
24962;BME280;12992;50.884;13.668;2023-04-07T07:13:34;97120.41;;;6.87;60.00
24962;BME280;12992;50.884;13.668;2023-04-07T07:15:59;97136.53;;;6.94;60.22
24962;BME280;12992;50.884;13.668;2023-04-07T07:18:25;97092.41;;;6.70;59.32
24962;BME280;12992;50.884;13.668;2023-04-07T07:20:50;97104.41;;;6.74;58.59
24962;BME280;12992;50.884;13.668;2023-04-07T07:23:15;97127.81;;;6.92;58.60
24962;BME280;12992;50.884;13.668;2023-04-07T07:25:41;97137.78;;;7.15;56.73
24962;BME280;12992;50.884;13.668;2023-04-07T07:28:06;97121.69;;;7.08;60.65
24962;BME280;12992;50.884;13.668;2023-04-07T07:30:33;97137.53;;;7.28;58.60
24962;BME280;12992;50.884;13.668;2023-04-07T07:32:58;97174.84;;;7.37;60.41
24962;BME280;12992;50.884;13.668;2023-04-07T07:35:24;97138.06;;;7.42;58.63
24962;BME280;12992;50.884;13.668;2023-04-07T07:37:50;97155.13;;;7.54;58.34
24962;BME280;12992;50.884;13.668;2023-04-07T07:40:16;97137.13;;;7.48;57.13
24962;BME280;12992;50.884;13.668;2023-04-07T07:42:42;97123.56;;;7.48;57.19
24962;BME280;12992;50.884;13.668;2023-04-07T07:45:07;97114.66;;;7.35;56.38
24962;BME280;12992;50.884;13.668;2023-04-07T07:47:33;97149.47;;;7.55;57.77
24962;BME280;12992;50.884;13.668;2023-04-07T07:50:01;97165.66;;;7.79;57.10
24962;BME280;12992;50.884;13.668;2023-04-07T07:52:27;97164.47;;;7.75;58.50
24962;BME280;12992;50.884;13.668;2023-04-07T07:54:52;97165.53;;;8.02;55.27
24962;BME280;12992;50.884;13.668;2023-04-07T07:57:17;97182.91;;;8.18;55.53
24962;BME280;12992;50.884;13.668;2023-04-07T07:59:43;97142.88;;;8.08;55.40
24962;BME280;12992;50.884;13.668;2023-04-07T08:02:08;97148.13;;;7.98;56.75
24962;BME280;12992;50.884;13.668;2023-04-07T08:04:34;97179.31;;;8.29;57.83
24962;BME280;12992;50.884;13.668;2023-04-07T08:07:00;97233.09;;;8.77;57.90
24962;BME280;12992;50.884;13.668;2023-04-07T08:09:26;97264.28;;;9.25;59.87
24962;BME280;12992;50.884;13.668;2023-04-07T08:11:51;97208.84;;;9.26;54.84
24962;BME280;12992;50.884;13.668;2023-04-07T08:14:16;97151.66;;;8.77;54.73
24962;BME280;12992;50.884;13.668;2023-04-07T08:16:43;97129.69;;;8.62;54.00
24962;BME280;12992;50.884;13.668;2023-04-07T08:19:09;97145.41;;;8.60;55.11
24962;BME280;12992;50.884;13.668;2023-04-07T08:21:34;97160.88;;;8.76;55.10
24962;BME280;12992;50.884;13.668;2023-04-07T08:24:00;97158.63;;;8.73;54.19
24962;BME280;12992;50.884;13.668;2023-04-07T08:26:25;97133.47;;;8.61;53.11
24962;BME280;12992;50.884;13.668;2023-04-07T08:28:51;97128.50;;;8.24;54.24
24962;BME280;12992;50.884;13.668;2023-04-07T08:31:17;97136.34;;;8.38;53.47
24962;BME280;12992;50.884;13.668;2023-04-07T08:33:42;97210.81;;;8.92;53.35
24962;BME280;12992;50.884;13.668;2023-04-07T08:36:07;97183.72;;;8.97;53.00
24962;BME280;12992;50.884;13.668;2023-04-07T08:38:33;97195.41;;;8.98;53.03
24962;BME280;12992;50.884;13.668;2023-04-07T08:41:11;97166.88;;;9.17;51.77
24962;BME280;12992;50.884;13.668;2023-04-07T08:43:37;97171.59;;;9.05;54.23
24962;BME280;12992;50.884;13.668;2023-04-07T08:46:03;97148.41;;;8.97;52.10
24962;BME280;12992;50.884;13.668;2023-04-07T08:48:29;97122.19;;;8.86;51.62
24962;BME280;12992;50.884;13.668;2023-04-07T08:51:03;97151.69;;;8.99;51.90
24962;BME280;12992;50.884;13.668;2023-04-07T08:53:48;97197.22;;;9.48;51.41
24962;BME280;12992;50.884;13.668;2023-04-07T08:56:17;97124.78;;;8.98;54.28
24962;BME280;12992;50.884;13.668;2023-04-07T08:58:43;97128.97;;;9.05;53.59
24962;BME280;12992;50.884;13.668;2023-04-07T09:01:10;97170.03;;;9.09;54.48
24962;BME280;12992;50.884;13.668;2023-04-07T09:03:35;97141.91;;;8.98;52.80
24962;BME280;12992;50.884;13.668;2023-04-07T09:06:02;97174.84;;;9.24;54.16
24962;BME280;12992;50.884;13.668;2023-04-07T09:08:28;97113.13;;;8.80;52.59
24962;BME280;12992;50.884;13.668;2023-04-07T09:10:54;97116.91;;;8.79;54.67
24962;BME280;12992;50.884;13.668;2023-04-07T09:13:20;97150.94;;;9.04;53.82
24962;BME280;12992;50.884;13.668;2023-04-07T09:15:46;97181.00;;;9.36;52.46
24962;BME280;12992;50.884;13.668;2023-04-07T09:18:11;97161.75;;;9.38;53.11
24962;BME280;12992;50.884;13.668;2023-04-07T09:20:55;97215.50;;;9.74;55.67
24962;BME280;12992;50.884;13.668;2023-04-07T09:23:29;97161.81;;;9.64;52.34
24962;BME280;12992;50.884;13.668;2023-04-07T09:25:56;97137.78;;;9.56;50.19
24962;BME280;12992;50.884;13.668;2023-04-07T09:28:24;97151.94;;;9.58;53.30
24962;BME280;12992;50.884;13.668;2023-04-07T09:30:52;97140.59;;;9.45;54.60
24962;BME280;12992;50.884;13.668;2023-04-07T09:33:26;97133.50;;;9.39;54.57
24962;BME280;12992;50.884;13.668;2023-04-07T09:35:52;97189.94;;;9.75;55.98
24962;BME280;12992;50.884;13.668;2023-04-07T09:38:17;97124.13;;;9.51;54.71
24962;BME280;12992;50.884;13.668;2023-04-07T09:40:43;97151.03;;;9.75;52.58
24962;BME280;12992;50.884;13.668;2023-04-07T09:43:14;97137.19;;;9.76;52.28
24962;BME280;12992;50.884;13.668;2023-04-07T09:45:40;97137.53;;;9.58;53.70
24962;BME280;12992;50.884;13.668;2023-04-07T09:48:26;97107.50;;;9.48;50.66
24962;BME280;12992;50.884;13.668;2023-04-07T09:51:04;97130.81;;;9.44;53.83
24962;BME280;12992;50.884;13.668;2023-04-07T09:53:46;97082.22;;;9.25;52.17
24962;BME280;12992;50.884;13.668;2023-04-07T09:56:14;97122.63;;;9.39;52.42
24962;BME280;12992;50.884;13.668;2023-04-07T09:58:40;97104.06;;;9.35;52.30
24962;BME280;12992;50.884;13.668;2023-04-07T10:01:08;97153.84;;;9.58;56.90
24962;BME280;12992;50.884;13.668;2023-04-07T10:03:37;97104.66;;;9.38;54.91
24962;BME280;12992;50.884;13.668;2023-04-07T10:06:03;97121.66;;;9.50;52.74
24962;BME280;12992;50.884;13.668;2023-04-07T10:08:32;97063.13;;;8.98;52.21
24962;BME280;12992;50.884;13.668;2023-04-07T10:10:59;97097.00;;;9.13;53.35
24962;BME280;12992;50.884;13.668;2023-04-07T10:13:26;97083.69;;;9.11;54.20
24962;BME280;12992;50.884;13.668;2023-04-07T10:15:52;97089.88;;;9.06;53.54
24962;BME280;12992;50.884;13.668;2023-04-07T10:18:19;97123.69;;;9.38;53.23
24962;BME280;12992;50.884;13.668;2023-04-07T10:20:46;97141.69;;;9.44;55.37
24962;BME280;12992;50.884;13.668;2023-04-07T10:23:36;97121.91;;;9.26;56.46
24962;BME280;12992;50.884;13.668;2023-04-07T10:26:05;97171.03;;;9.63;56.63
24962;BME280;12992;50.884;13.668;2023-04-07T10:28:32;97153.13;;;9.68;53.97
24962;BME280;12992;50.884;13.668;2023-04-07T10:31:02;97073.81;;;9.27;53.03
24962;BME280;12992;50.884;13.668;2023-04-07T10:33:45;97069.59;;;9.14;52.68
24962;BME280;12992;50.884;13.668;2023-04-07T10:36:11;97060.03;;;8.90;52.94
24962;BME280;12992;50.884;13.668;2023-04-07T10:38:36;97111.66;;;9.33;54.33
24962;BME280;12992;50.884;13.668;2023-04-07T10:41:36;97189.44;;;10.05;53.64
24962;BME280;12992;50.884;13.668;2023-04-07T10:44:03;97203.91;;;10.60;50.69
24962;BME280;12992;50.884;13.668;2023-04-07T10:49:10;97202.47;;;11.16;49.84
24962;BME280;12992;50.884;13.668;2023-04-07T10:51:36;97221.66;;;11.31;51.58
24962;BME280;12992;50.884;13.668;2023-04-07T10:54:15;97182.13;;;10.92;54.27
24962;BME280;12992;50.884;13.668;2023-04-07T10:57:07;97177.56;;;11.02;52.17
24962;BME280;12992;50.884;13.668;2023-04-07T10:59:35;97214.28;;;11.32;54.18
24962;BME280;12992;50.884;13.668;2023-04-07T11:04:40;97241.13;;;11.55;55.86
24962;BME280;12992;50.884;13.668;2023-04-07T11:07:07;97237.06;;;12.05;53.09
24962;BME280;12992;50.884;13.668;2023-04-07T11:09:32;97205.88;;;11.91;53.13
24962;BME280;12992;50.884;13.668;2023-04-07T11:11:57;97116.69;;;11.39;50.96
24962;BME280;12992;50.884;13.668;2023-04-07T11:14:27;97091.13;;;10.93;52.90
24962;BME280;12992;50.884;13.668;2023-04-07T11:16:52;97101.25;;;11.02;51.65
24962;BME280;12992;50.884;13.668;2023-04-07T11:19:18;97082.97;;;10.56;55.44
24962;BME280;12992;50.884;13.668;2023-04-07T11:21:43;97073.53;;;10.31;54.72
24962;BME280;12992;50.884;13.668;2023-04-07T11:24:09;97095.53;;;10.25;54.63
24962;BME280;12992;50.884;13.668;2023-04-07T11:26:39;97082.78;;;10.30;53.10
24962;BME280;12992;50.884;13.668;2023-04-07T11:29:04;97115.88;;;10.49;53.75
24962;BME280;12992;50.884;13.668;2023-04-07T11:31:30;97115.19;;;10.69;52.06
24962;BME280;12992;50.884;13.668;2023-04-07T11:34:01;97118.50;;;10.71;55.41
24962;BME280;12992;50.884;13.668;2023-04-07T11:36:31;97089.47;;;10.49;53.86
24962;BME280;12992;50.884;13.668;2023-04-07T11:38:57;97103.13;;;10.55;54.29
24962;BME280;12992;50.884;13.668;2023-04-07T11:41:24;97070.66;;;10.48;53.16
24962;BME280;12992;50.884;13.668;2023-04-07T11:44:09;97088.44;;;10.56;54.74
24962;BME280;12992;50.884;13.668;2023-04-07T11:46:50;97046.91;;;10.38;53.14
24962;BME280;12992;50.884;13.668;2023-04-07T11:49:16;97100.44;;;10.60;51.17
24962;BME280;12992;50.884;13.668;2023-04-07T11:51:44;97117.00;;;10.90;52.99
24962;BME280;12992;50.884;13.668;2023-04-07T11:54:10;97148.78;;;11.22;53.00
24962;BME280;12992;50.884;13.668;2023-04-07T11:56:44;97163.59;;;11.31;55.20
24962;BME280;12992;50.884;13.668;2023-04-07T11:59:23;97137.41;;;11.35;52.74
24962;BME280;12992;50.884;13.668;2023-04-07T12:01:51;97092.38;;;10.75;55.49
24962;BME280;12992;50.884;13.668;2023-04-07T12:04:17;97082.59;;;10.79;52.97
24962;BME280;12992;50.884;13.668;2023-04-07T12:06:44;97061.75;;;10.58;53.96
24962;BME280;12992;50.884;13.668;2023-04-07T12:11:52;97063.91;;;10.56;56.63
24962;BME280;12992;50.884;13.668;2023-04-07T12:14:17;96983.00;;;10.09;54.77
24962;BME280;12992;50.884;13.668;2023-04-07T12:16:42;97007.78;;;9.80;57.30
24962;BME280;12992;50.884;13.668;2023-04-07T12:19:09;97017.72;;;9.64;57.92
24962;BME280;12992;50.884;13.668;2023-04-07T12:21:34;97062.03;;;9.92;57.66
24962;BME280;12992;50.884;13.668;2023-04-07T12:23:59;97048.19;;;9.72;59.22
24962;BME280;12992;50.884;13.668;2023-04-07T12:26:25;97047.50;;;9.81;54.92
24962;BME280;12992;50.884;13.668;2023-04-07T12:28:50;97067.50;;;9.97;56.11
24962;BME280;12992;50.884;13.668;2023-04-07T12:31:15;97045.19;;;9.68;57.13
24962;BME280;12992;50.884;13.668;2023-04-07T12:33:41;97040.22;;;9.60;57.97
24962;BME280;12992;50.884;13.668;2023-04-07T12:36:06;97023.28;;;9.53;57.05
24962;BME280;12992;50.884;13.668;2023-04-07T12:38:32;97048.78;;;9.74;56.84
24962;BME280;12992;50.884;13.668;2023-04-07T12:40:57;97040.28;;;9.65;56.53
24962;BME280;12992;50.884;13.668;2023-04-07T12:43:30;97044.91;;;9.64;56.51
24962;BME280;12992;50.884;13.668;2023-04-07T12:45:56;97021.00;;;9.45;56.73
24962;BME280;12992;50.884;13.668;2023-04-07T12:48:21;97023.06;;;9.32;56.39
24962;BME280;12992;50.884;13.668;2023-04-07T12:50:48;97045.66;;;9.60;56.07
24962;BME280;12992;50.884;13.668;2023-04-07T12:53:13;97058.25;;;9.71;55.15
24962;BME280;12992;50.884;13.668;2023-04-07T12:55:39;97123.22;;;10.21;58.02
24962;BME280;12992;50.884;13.668;2023-04-07T12:58:04;97128.66;;;10.48;57.07
24962;BME280;12992;50.884;13.668;2023-04-07T13:00:29;97096.44;;;10.35;55.92
24962;BME280;12992;50.884;13.668;2023-04-07T13:02:55;97133.53;;;10.78;53.07
24962;BME280;12992;50.884;13.668;2023-04-07T13:05:21;97169.47;;;11.18;54.24
24962;BME280;12992;50.884;13.668;2023-04-07T13:07:46;97106.97;;;10.96;54.42
24962;BME280;12992;50.884;13.668;2023-04-07T13:10:11;97098.09;;;10.73;54.37